South Lexington, North Carolina
Current Conditions -  °F | °C
As of 3:55 PM on Tuesday 21 Oct 2014 (Local Time) from KEXX Reporting Station
Broken Clouds Broken Clouds  
Wind Chill: 71°   Ceiling: 8000
Heat Index: 71°   Visibility: 10mi
Dew Point: 44°   Wind: 6mph
Humidity: 38%   Direction: 250°WSW
Pressure: 29.86"   Gusts: NA
Location:  35.7974°N, 80.2541°W
Report Text: KEXX 211955Z AUTO 25005KT 10SM SCT065 BKN080 22/07 A2986 RMK AO2 T02180068
Loading
Personal Weather Stations






























Interactive Weather Map
Tropical Storm Tracking
New forecast layout! Learn more

10-Day Weather Forecast

Advertisements
Track Severe Weather on mobile